Time;durP1;ratioP1;P1;durP2;ratioP2;P2;SDS_P1;SDS_P2;PMS_P1;PMS_P2;Temp;Humidity;BMP_temperature;BMP_pressure;BME280_temperature;BME280_humidity;BME280_pressure;Samples;Min_cycle;Max_cycle;Signal;HPM_P1;HPM_P2
2023/07/16 00:01:32;;;;;;;30.80;10.07;;;29.80;70.30;;;;;;6214745;23;20311;-76
2023/07/16 00:03:57;;;;;;;24.92;10.30;;;29.80;70.50;;;;;;6214657;23;20338;-74
2023/07/16 00:06:23;;;;;;;31.98;10.38;;;29.80;70.40;;;;;;6214867;23;20071;-75
2023/07/16 00:08:49;;;;;;;26.60;9.65;;;29.80;70.40;;;;;;6214730;23;19997;-75
2023/07/16 00:11:14;;;;;;;26.02;9.70;;;29.80;70.40;;;;;;6214593;23;20035;-75
2023/07/16 00:13:45;;;;;;;27.77;8.75;;;29.70;70.40;;;;;;6214627;23;19997;-74
2023/07/16 00:16:12;;;;;;;31.35;9.57;;;29.70;70.80;;;;;;6215107;23;20032;-75
2023/07/16 00:18:37;;;;;;;27.85;9.13;;;29.70;70.70;;;;;;6213888;23;20040;-76
2023/07/16 00:21:03;;;;;;;18.88;8.65;;;29.60;71.00;;;;;;6214857;23;20004;-76
2023/07/16 00:23:28;;;;;;;29.48;9.35;;;29.70;71.20;;;;;;6214452;23;20062;-76
2023/07/16 00:25:54;;;;;;;22.92;8.82;;;29.70;71.40;;;;;;6214380;23;20330;-76
2023/07/16 00:28:20;;;;;;;28.70;9.05;;;29.70;71.70;;;;;;6214170;23;20446;-76
2023/07/16 00:30:45;;;;;;;31.33;8.85;;;29.60;71.80;;;;;;6214345;23;20102;-76
2023/07/16 00:33:11;;;;;;;27.70;8.77;;;29.50;71.80;;;;;;6215535;23;20513;-75
2023/07/16 00:35:37;;;;;;;30.58;9.35;;;29.60;71.70;;;;;;6216588;23;20001;-75
2023/07/16 00:38:03;;;;;;;25.40;9.40;;;29.60;71.70;;;;;;6215967;23;20028;-75
2023/07/16 00:40:28;;;;;;;27.58;9.20;;;29.60;71.80;;;;;;6216030;23;19997;-76
2023/07/16 00:42:54;;;;;;;20.25;8.32;;;29.50;71.90;;;;;;6189662;23;20092;-75
2023/07/16 00:45:20;;;;;;;20.65;8.57;;;29.40;71.60;;;;;;6216068;23;20107;-75
2023/07/16 00:47:46;;;;;;;25.67;8.82;;;29.30;71.60;;;;;;6215915;23;20080;-75
2023/07/16 00:50:12;;;;;;;28.83;9.75;;;29.30;71.90;;;;;;6216422;23;20072;-74
2023/07/16 00:52:38;;;;;;;27.58;9.30;;;29.30;72.20;;;;;;6215852;23;20004;-76
2023/07/16 00:55:06;;;;;;;22.80;8.70;;;29.30;72.10;;;;;;6216232;23;19996;-76
2023/07/16 00:57:33;;;;;;;20.73;9.73;;;29.30;72.00;;;;;;6216053;23;20009;-75
2023/07/16 00:59:58;;;;;;;25.98;8.40;;;29.30;72.20;;;;;;6216215;23;20381;-76
2023/07/16 01:02:24;;;;;;;21.65;9.30;;;29.30;72.10;;;;;;6222232;23;20001;-75
2023/07/16 01:04:50;;;;;;;24.35;9.23;;;29.30;72.20;;;;;;6216022;23;20000;-76
2023/07/16 01:07:18;;;;;;;20.50;9.20;;;29.20;72.10;;;;;;6189112;23;20342;-75
2023/07/16 01:09:44;;;;;;;22.70;8.98;;;29.10;72.40;;;;;;6215648;23;20370;-75
2023/07/16 01:12:11;;;;;;;24.90;9.82;;;29.10;72.50;;;;;;6215601;23;20004;-75
2023/07/16 01:14:38;;;;;;;20.13;10.05;;;29.00;72.40;;;;;;6215644;23;19996;-75
2023/07/16 01:17:06;;;;;;;25.02;10.82;;;28.90;72.70;;;;;;6215407;23;20012;-75
2023/07/16 01:19:35;;;;;;;23.67;9.50;;;28.90;72.70;;;;;;6216392;23;20027;-74
2023/07/16 01:22:16;;;;;;;24.08;8.15;;;28.90;72.60;;;;;;6216075;23;20007;-74
2023/07/16 01:24:54;;;;;;;21.52;9.02;;;28.90;72.20;;;;;;6215511;23;20330;-75
2023/07/16 01:27:57;;;;;;;24.15;9.43;;;28.90;72.80;;;;;;6215712;23;19996;-75
2023/07/16 01:30:24;;;;;;;21.10;9.23;;;28.90;71.90;;;;;;6215166;23;20004;-74
2023/07/16 01:32:51;;;;;;;15.73;8.38;;;28.90;72.90;;;;;;6215733;23;20004;-75
2023/07/16 01:35:17;;;;;;;21.83;7.70;;;28.90;72.60;;;;;;6215794;23;20453;-75
2023/07/16 01:37:43;;;;;;;21.27;9.18;;;28.90;72.50;;;;;;6215272;23;20047;-74
2023/07/16 01:40:09;;;;;;;19.35;8.15;;;28.90;72.40;;;;;;6215542;23;20423;-75
2023/07/16 01:42:35;;;;;;;15.95;7.90;;;28.80;72.10;;;;;;6214957;23;20005;-74
2023/07/16 01:45:01;;;;;;;19.38;9.13;;;28.80;71.90;;;;;;6215251;23;20001;-76
2023/07/16 01:47:39;;;;;;;20.15;8.57;;;28.80;72.00;;;;;;6215325;23;20005;-76
2023/07/16 01:50:05;;;;;;;17.10;8.50;;;28.70;71.90;;;;;;6215447;23;20079;-76
2023/07/16 01:52:31;;;;;;;18.02;8.20;;;28.70;71.80;;;;;;6215077;23;20000;-76
2023/07/16 01:54:57;;;;;;;16.58;8.50;;;28.70;71.60;;;;;;6215459;23;20094;-75
2023/07/16 01:57:22;;;;;;;16.30;7.63;;;28.60;71.60;;;;;;6215128;23;20086;-73
2023/07/16 01:59:48;;;;;;;18.98;7.80;;;28.60;71.70;;;;;;6215393;23;20012;-75
2023/07/16 02:02:14;;;;;;;16.85;8.38;;;28.60;71.90;;;;;;6215580;23;20001;-75
2023/07/16 02:04:39;;;;;;;25.63;8.05;;;28.60;72.00;;;;;;6188749;23;20439;-75
2023/07/16 02:07:05;;;;;;;20.40;8.50;;;28.50;71.90;;;;;;6215465;23;20005;-74
2023/07/16 02:09:31;;;;;;;19.67;8.27;;;28.50;72.20;;;;;;6188439;23;20035;-76
2023/07/16 02:11:57;;;;;;;29.45;9.68;;;28.50;72.30;;;;;;6214886;23;19996;-75
2023/07/16 02:14:23;;;;;;;20.13;8.63;;;28.50;72.50;;;;;;6215493;23;20065;-75
2023/07/16 02:16:49;;;;;;;22.05;8.55;;;28.50;72.70;;;;;;6215084;23;20455;-75
2023/07/16 02:19:14;;;;;;;21.05;8.98;;;28.40;72.70;;;;;;6214623;23;20059;-75
2023/07/16 02:21:40;;;;;;;26.08;9.50;;;28.40;73.10;;;;;;6214784;23;20518;-74
2023/07/16 02:24:06;;;;;;;29.15;9.60;;;28.40;73.10;;;;;;6214939;23;20083;-75
2023/07/16 02:26:31;;;;;;;24.10;9.10;;;28.30;73.10;;;;;;6214928;23;20001;-74
2023/07/16 02:28:59;;;;;;;19.98;9.05;;;28.30;73.10;;;;;;6214918;23;20081;-74
2023/07/16 02:31:24;;;;;;;18.98;8.77;;;28.40;73.40;;;;;;6214521;23;20020;-74
2023/07/16 02:33:50;;;;;;;17.75;8.88;;;28.40;73.40;;;;;;6214761;23;20004;-74
2023/07/16 02:36:16;;;;;;;27.17;8.77;;;28.30;73.40;;;;;;6214795;23;20001;-74
2023/07/16 02:38:41;;;;;;;26.42;10.20;;;28.40;73.20;;;;;;6215134;23;20096;-75
2023/07/16 02:41:07;;;;;;;22.20;8.18;;;28.30;73.10;;;;;;6214944;23;19997;-75
2023/07/16 02:43:33;;;;;;;25.15;8.75;;;28.20;73.20;;;;;;6214958;23;20023;-75
2023/07/16 02:45:58;;;;;;;22.70;8.77;;;28.20;73.30;;;;;;6215186;23;20062;-75
2023/07/16 02:48:24;;;;;;;24.38;8.43;;;28.20;73.10;;;;;;6215200;23;20007;-75
2023/07/16 02:50:50;;;;;;;22.05;8.70;;;28.20;73.10;;;;;;6214695;23;20546;-75
2023/07/16 02:53:15;;;;;;;24.38;8.43;;;28.20;72.90;;;;;;6214765;23;20004;-76
2023/07/16 02:55:41;;;;;;;25.02;8.38;;;28.20;72.60;;;;;;6214023;23;20000;-75
2023/07/16 02:58:07;;;;;;;26.98;8.18;;;28.20;72.40;;;;;;6215062;23;20495;-75
2023/07/16 03:00:33;;;;;;;22.92;8.52;;;28.20;72.50;;;;;;6215769;23;20001;-75
2023/07/16 03:02:59;;;;;;;21.58;8.95;;;28.20;72.40;;;;;;6214740;23;20078;-75
2023/07/16 03:05:26;;;;;;;21.80;9.07;;;28.20;72.70;;;;;;6214452;23;20501;-75
2023/07/16 03:07:52;;;;;;;21.60;8.35;;;28.20;72.80;;;;;;6214468;23;20087;-76
2023/07/16 03:10:18;;;;;;;23.17;8.50;;;28.10;72.80;;;;;;6214780;23;20001;-75
2023/07/16 03:12:43;;;;;;;21.27;8.75;;;28.00;72.80;;;;;;6214479;23;20004;-75
2023/07/16 03:15:10;;;;;;;19.27;8.50;;;28.00;72.90;;;;;;6214840;23;20068;-75
2023/07/16 03:17:35;;;;;;;23.85;7.97;;;27.90;72.90;;;;;;6214759;23;20015;-75
2023/07/16 03:20:04;;;;;;;20.23;8.68;;;27.90;73.00;;;;;;6214488;23;20025;-75
2023/07/16 03:22:29;;;;;;;20.42;8.30;;;27.90;73.00;;;;;;6214922;23;20158;-75
2023/07/16 03:24:55;;;;;;;17.58;7.88;;;27.90;72.90;;;;;;6214712;23;20000;-75
2023/07/16 03:27:21;;;;;;;19.98;8.30;;;27.90;72.90;;;;;;6214655;23;20008;-75
2023/07/16 03:29:46;;;;;;;19.55;8.70;;;27.80;72.90;;;;;;6214440;23;20075;-74
2023/07/16 03:32:12;;;;;;;17.50;8.15;;;27.70;72.80;;;;;;6214164;23;20358;-75
2023/07/16 03:34:38;;;;;;;23.00;8.45;;;27.70;73.10;;;;;;6214191;23;20412;-75
2023/07/16 03:37:03;;;;;;;21.52;8.05;;;27.60;73.10;;;;;;6219914;23;20020;-76
2023/07/16 03:39:29;;;;;;;16.70;7.72;;;27.50;73.30;;;;;;6217128;23;20004;-75
2023/07/16 03:41:55;;;;;;;19.58;8.02;;;27.50;73.20;;;;;;6214488;23;20008;-75
2023/07/16 03:44:20;;;;;;;19.38;7.82;;;27.60;73.10;;;;;;6214597;23;20035;-75
2023/07/16 03:46:46;;;;;;;18.73;7.43;;;27.70;72.80;;;;;;6214190;23;20055;-75
2023/07/16 03:49:12;;;;;;;11.80;7.25;;;27.70;72.90;;;;;;6214171;23;20443;-74
2023/07/16 03:51:37;;;;;;;24.67;8.57;;;27.70;73.10;;;;;;6214526;23;20001;-75
2023/07/16 03:54:03;;;;;;;22.15;7.78;;;27.60;73.50;;;;;;6214400;23;20072;-75
2023/07/16 03:56:29;;;;;;;16.43;8.33;;;27.60;73.30;;;;;;6187706;23;20004;-75
2023/07/16 03:58:54;;;;;;;17.23;7.68;;;27.50;73.50;;;;;;6214366;23;20075;-75
2023/07/16 04:01:20;;;;;;;23.92;8.90;;;27.50;73.60;;;;;;6214076;23;20080;-74
2023/07/16 04:03:46;;;;;;;15.35;7.78;;;27.60;73.40;;;;;;6214056;23;20040;-74
2023/07/16 04:06:12;;;;;;;17.05;7.35;;;27.60;73.30;;;;;;6214213;23;20011;-74
2023/07/16 04:08:38;;;;;;;17.02;7.63;;;27.60;73.10;;;;;;6214275;23;20162;-74
2023/07/16 04:11:05;;;;;;;20.73;8.10;;;27.60;73.00;;;;;;6214265;23;20072;-73
2023/07/16 04:13:32;;;;;;;19.08;7.95;;;27.60;73.00;;;;;;6214037;23;20071;-75
2023/07/16 04:15:58;;;;;;;18.40;8.18;;;27.70;73.00;;;;;;6187139;23;20012;-76
2023/07/16 04:18:24;;;;;;;23.58;8.15;;;27.70;72.70;;;;;;6213782;23;20024;-74
2023/07/16 04:20:50;;;;;;;14.23;7.35;;;27.70;72.40;;;;;;6213987;23;20016;-74
2023/07/16 04:23:16;;;;;;;16.92;7.38;;;27.80;72.20;;;;;;6213744;23;20008;-75
2023/07/16 04:25:41;;;;;;;17.42;7.20;;;27.80;72.10;;;;;;6213810;23;20107;-74
2023/07/16 04:28:07;;;;;;;20.73;7.43;;;27.80;71.90;;;;;;6213795;23;20009;-75
2023/07/16 04:30:33;;;;;;;12.25;6.95;;;27.90;71.80;;;;;;6215066;23;20058;-75
2023/07/16 04:32:58;;;;;;;22.13;7.28;;;27.90;71.70;;;;;;6215064;23;20000;-75
2023/07/16 04:35:24;;;;;;;18.13;7.38;;;27.80;71.60;;;;;;6213967;23;20000;-74
2023/07/16 04:37:50;;;;;;;17.30;7.55;;;27.80;71.70;;;;;;6217338;23;20012;-74
2023/07/16 04:40:15;;;;;;;16.77;7.60;;;27.90;71.70;;;;;;6217332;23;20016;-75
2023/07/16 04:42:41;;;;;;;15.90;6.78;;;27.90;71.20;;;;;;6214620;23;20494;-74
2023/07/16 04:45:07;;;;;;;21.33;6.75;;;27.90;71.20;;;;;;6214111;23;20000;-74
2023/07/16 04:47:33;;;;;;;21.02;8.27;;;27.90;70.90;;;;;;6214063;23;20000;-75
2023/07/16 04:49:59;;;;;;;22.13;7.72;;;28.00;71.10;;;;;;6214029;23;20001;-75
2023/07/16 04:52:25;;;;;;;17.52;7.70;;;28.00;70.90;;;;;;6187184;23;20008;-76
2023/07/16 04:54:51;;;;;;;18.63;7.18;;;28.00;70.70;;;;;;6213875;23;20005;-78
2023/07/16 04:57:16;;;;;;;21.55;7.22;;;28.00;70.60;;;;;;6213859;23;20420;-75
2023/07/16 04:59:42;;;;;;;15.75;6.72;;;28.10;70.10;;;;;;6214358;23;19997;-74
2023/07/16 05:02:08;;;;;;;14.30;6.65;;;28.10;69.90;;;;;;6215234;23;20001;-76
2023/07/16 05:04:34;;;;;;;18.38;7.68;;;28.10;69.90;;;;;;6215096;23;20427;-75
2023/07/16 05:07:04;;;;;;;15.38;7.38;;;28.20;69.90;;;;;;6214187;23;20036;-75
2023/07/16 05:09:29;;;;;;;15.02;7.35;;;28.20;69.60;;;;;;6214834;23;20008;-75
2023/07/16 05:11:55;;;;;;;16.00;6.65;;;28.20;69.50;;;;;;6213837;23;20001;-74
2023/07/16 05:14:21;;;;;;;16.95;6.68;;;28.30;69.50;;;;;;6214149;23;20009;-75
2023/07/16 05:16:47;;;;;;;18.23;6.72;;;28.30;69.20;;;;;;6213460;23;20461;-75
2023/07/16 05:19:12;;;;;;;17.70;7.25;;;28.40;68.80;;;;;;6215382;23;20028;-75
2023/07/16 05:21:38;;;;;;;16.70;6.88;;;28.40;68.60;;;;;;6215409;23;19997;-74
2023/07/16 05:24:05;;;;;;;14.75;7.00;;;28.60;68.50;;;;;;6215449;23;20062;-74
2023/07/16 05:26:30;;;;;;;10.02;6.00;;;28.70;68.00;;;;;;6215106;23;20024;-75
2023/07/16 05:28:56;;;;;;;18.75;8.20;;;29.00;67.50;;;;;;6215113;23;20001;-73
2023/07/16 05:31:22;;;;;;;18.42;7.35;;;29.10;67.10;;;;;;6215068;23;20043;-74
2023/07/16 05:33:47;;;;;;;15.45;7.25;;;29.30;66.50;;;;;;6214988;23;20004;-74
2023/07/16 05:36:13;;;;;;;14.75;6.45;;;29.60;66.50;;;;;;6215011;23;20302;-74
2023/07/16 05:38:39;;;;;;;14.52;6.88;;;29.90;65.20;;;;;;6215020;23;20008;-74
2023/07/16 05:41:05;;;;;;;15.98;6.60;;;30.10;64.10;;;;;;6215039;23;20012;-74
2023/07/16 05:43:32;;;;;;;16.30;7.35;;;30.30;63.60;;;;;;6215093;23;20007;-75
2023/07/16 05:45:58;;;;;;;14.85;7.43;;;30.50;63.10;;;;;;6214980;23;19997;-74
2023/07/16 05:48:24;;;;;;;14.70;6.80;;;30.70;62.40;;;;;;6215134;23;20008;-74
2023/07/16 05:50:50;;;;;;;14.05;6.78;;;31.00;62.00;;;;;;6214907;23;20001;-74
2023/07/16 05:53:16;;;;;;;12.30;7.25;;;31.30;61.40;;;;;;6215066;23;20038;-75
2023/07/16 05:55:42;;;;;;;15.15;6.43;;;31.40;60.80;;;;;;6214895;23;20019;-74
2023/07/16 05:58:08;;;;;;;16.85;6.22;;;31.50;60.50;;;;;;6214658;23;20040;-78
2023/07/16 06:00:35;;;;;;;24.48;6.78;;;31.50;60.30;;;;;;6215296;23;19997;-74
2023/07/16 06:03:02;;;;;;;14.75;6.75;;;31.60;60.00;;;;;;6214996;23;20009;-75
2023/07/16 06:05:32;;;;;;;14.95;6.65;;;31.60;60.00;;;;;;6214912;23;20009;-74
2023/07/16 06:07:58;;;;;;;15.88;6.80;;;31.70;60.00;;;;;;6214913;23;20011;-75
2023/07/16 06:10:23;;;;;;;19.98;6.95;;;31.80;59.90;;;;;;6214823;23;20467;-75
2023/07/16 06:12:49;;;;;;;15.73;6.65;;;32.00;59.50;;;;;;6214874;23;20085;-75
2023/07/16 06:15:15;;;;;;;17.10;6.63;;;32.20;59.10;;;;;;6214954;23;20316;-74
2023/07/16 06:17:41;;;;;;;16.70;6.78;;;32.30;58.90;;;;;;6217161;23;20015;-75
2023/07/16 06:20:08;;;;;;;18.30;6.88;;;32.50;58.30;;;;;;6214817;23;20066;-74
2023/07/16 06:22:33;;;;;;;12.98;6.50;;;32.60;57.90;;;;;;6214776;23;20001;-74
2023/07/16 06:24:59;;;;;;;19.60;6.88;;;32.70;57.70;;;;;;6214772;23;20055;-75
2023/07/16 06:27:25;;;;;;;15.98;6.57;;;32.70;57.70;;;;;;6214784;23;20032;-76
2023/07/16 06:29:51;;;;;;;16.02;6.18;;;33.00;57.50;;;;;;6214688;23;20000;-76
2023/07/16 06:32:17;;;;;;;16.23;6.07;;;33.30;57.40;;;;;;6214469;23;20074;-75
2023/07/16 06:34:43;;;;;;;16.38;6.57;;;33.60;56.80;;;;;;6214742;23;19997;-76
2023/07/16 06:37:09;;;;;;;11.55;5.63;;;33.70;56.20;;;;;;6214910;23;20013;-76
2023/07/16 06:39:34;;;;;;;18.20;6.55;;;33.80;55.90;;;;;;6217088;23;20061;-75
2023/07/16 06:42:00;;;;;;;18.85;7.53;;;33.90;56.10;;;;;;6217442;23;20001;-75
2023/07/16 06:44:26;;;;;;;17.58;8.10;;;34.00;55.80;;;;;;6216161;23;19996;-74
2023/07/16 06:46:52;;;;;;;19.73;7.30;;;34.20;55.50;;;;;;6214852;23;20058;-76
2023/07/16 06:49:18;;;;;;;15.77;6.22;;;34.30;55.50;;;;;;6214582;23;20335;-75
2023/07/16 06:51:44;;;;;;;21.55;6.50;;;34.40;55.30;;;;;;6214390;23;20083;-75
2023/07/16 06:54:10;;;;;;;18.50;6.38;;;34.50;55.20;;;;;;6214688;23;20442;-76
2023/07/16 06:56:35;;;;;;;17.02;8.52;;;34.50;55.30;;;;;;6214734;23;20063;-75
2023/07/16 06:59:01;;;;;;;20.70;10.77;;;34.60;55.10;;;;;;6214441;23;20096;-75
2023/07/16 07:01:27;;;;;;;20.15;6.90;;;34.70;55.20;;;;;;6214244;23;19997;-75
2023/07/16 07:03:54;;;;;;;12.75;5.90;;;34.80;54.90;;;;;;6214245;23;20027;-75
2023/07/16 07:06:21;;;;;;;18.13;6.65;;;34.90;54.90;;;;;;6214746;23;20001;-75
2023/07/16 07:08:46;;;;;;;22.25;6.97;;;35.00;54.60;;;;;;6214905;23;20071;-75
2023/07/16 07:11:12;;;;;;;14.75;6.88;;;35.00;54.60;;;;;;6214555;23;20438;-76
2023/07/16 07:13:38;;;;;;;14.23;6.75;;;35.00;54.70;;;;;;6214427;23;20434;-76
2023/07/16 07:16:04;;;;;;;16.02;6.80;;;35.00;54.60;;;;;;6214999;23;20008;-76
2023/07/16 07:18:29;;;;;;;17.10;6.97;;;35.00;54.70;;;;;;6214898;23;20012;-75
2023/07/16 07:20:55;;;;;;;17.38;6.65;;;34.80;55.00;;;;;;6214835;23;20008;-77
2023/07/16 07:23:21;;;;;;;17.63;7.20;;;34.90;54.80;;;;;;6214399;23;20012;-75
2023/07/16 07:25:51;;;;;;;18.27;6.97;;;34.80;54.90;;;;;;6214369;23;19996;-76
2023/07/16 07:28:16;;;;;;;20.10;6.88;;;34.80;55.10;;;;;;6214320;23;20001;-76
2023/07/16 07:30:42;;;;;;;23.98;7.45;;;34.90;54.90;;;;;;6213932;23;20066;-76
2023/07/16 07:33:08;;;;;;;17.02;6.95;;;34.80;54.90;;;;;;6213833;23;20008;-76
2023/07/16 07:35:34;;;;;;;19.50;7.07;;;34.80;55.00;;;;;;6214441;23;20083;-77
2023/07/16 07:38:00;;;;;;;22.88;8.13;;;34.80;55.00;;;;;;6214213;23;20012;-76
2023/07/16 07:40:26;;;;;;;16.75;7.63;;;34.70;55.20;;;;;;6213745;23;20001;-76
2023/07/16 07:42:52;;;;;;;20.35;7.25;;;34.70;55.20;;;;;;6213961;23;20408;-75
2023/07/16 07:45:17;;;;;;;19.02;7.03;;;34.60;55.40;;;;;;6214381;23;20039;-77
2023/07/16 07:47:43;;;;;;;15.13;6.95;;;34.40;55.50;;;;;;6214114;23;20379;-76
2023/07/16 07:50:09;;;;;;;16.98;7.55;;;34.60;55.70;;;;;;6213952;23;19996;-76
2023/07/16 07:52:35;;;;;;;17.88;6.93;;;34.40;55.20;;;;;;6213728;23;20062;-76
2023/07/16 07:55:01;;;;;;;18.10;7.57;;;34.30;55.80;;;;;;6213676;23;20051;-74
2023/07/16 07:57:26;;;;;;;18.15;7.32;;;34.30;55.90;;;;;;6213710;23;20015;-75
2023/07/16 07:59:56;;;;;;;19.35;7.15;;;34.40;56.00;;;;;;6213833;23;20005;-75
2023/07/16 08:02:23;;;;;;;16.10;7.30;;;34.50;55.70;;;;;;6217691;23;20023;-75
2023/07/16 08:04:51;;;;;;;16.42;8.10;;;34.60;55.80;;;;;;6213934;23;20000;-77
2023/07/16 08:07:17;;;;;;;18.02;7.30;;;34.60;55.90;;;;;;6213846;23;20012;-74
2023/07/16 08:09:43;;;;;;;13.13;6.88;;;34.50;55.60;;;;;;6213468;23;20001;-76
2023/07/16 08:12:09;;;;;;;14.50;7.43;;;34.50;55.40;;;;;;6213671;23;20011;-75
2023/07/16 08:14:34;;;;;;;21.40;9.90;;;34.50;55.60;;;;;;6218147;23;20004;-76
2023/07/16 08:17:00;;;;;;;12.77;7.47;;;34.40;55.60;;;;;;6214238;23;20015;-75
2023/07/16 08:19:26;;;;;;;21.17;7.72;;;34.30;55.70;;;;;;6214584;23;20004;-76
2023/07/16 08:21:51;;;;;;;15.07;7.60;;;34.30;55.70;;;;;;6213743;23;20008;-73
2023/07/16 08:24:17;;;;;;;22.98;14.35;;;34.30;55.90;;;;;;6213911;23;20007;-75
2023/07/16 08:26:43;;;;;;;18.02;8.52;;;34.30;55.70;;;;;;6187042;23;20007;-76
2023/07/16 08:29:09;;;;;;;19.95;7.38;;;34.20;55.60;;;;;;6214153;23;20005;-76
2023/07/16 08:31:34;;;;;;;19.45;7.45;;;34.20;55.70;;;;;;6213820;23;20019;-76
2023/07/16 08:34:00;;;;;;;15.77;7.55;;;34.20;55.50;;;;;;6214261;23;20039;-77
2023/07/16 08:36:26;;;;;;;18.17;7.50;;;34.10;55.70;;;;;;6214276;23;20001;-76
2023/07/16 08:38:51;;;;;;;13.73;6.70;;;34.10;55.70;;;;;;6213842;23;20465;-76
2023/07/16 08:41:17;;;;;;;15.70;6.22;;;33.90;55.80;;;;;;6214212;23;19997;-76
2023/07/16 08:43:47;;;;;;;15.07;6.70;;;33.80;55.90;;;;;;6187987;23;20013;-77
2023/07/16 08:46:13;;;;;;;20.55;7.80;;;33.80;56.00;;;;;;6214493;23;20027;-77
2023/07/16 08:48:40;;;;;;;15.02;7.28;;;33.80;56.10;;;;;;6214012;23;20045;-76
2023/07/16 08:51:07;;;;;;;19.40;7.32;;;33.90;56.10;;;;;;6213560;23;20055;-78
2023/07/16 08:53:33;;;;;;;16.23;6.75;;;33.90;56.20;;;;;;6215135;23;20425;-76
2023/07/16 08:55:58;;;;;;;19.90;7.70;;;33.90;56.10;;;;;;6215965;23;20027;-78
2023/07/16 08:58:24;;;;;;;17.38;7.13;;;33.90;56.10;;;;;;6215644;23;20017;-76
2023/07/16 09:00:51;;;;;;;20.25;8.27;;;33.90;56.10;;;;;;6215717;23;19996;-76
2023/07/16 09:03:17;;;;;;;16.67;7.65;;;33.90;56.10;;;;;;6215909;23;20327;-76
2023/07/16 09:05:46;;;;;;;21.75;7.65;;;33.90;56.20;;;;;;6216183;23;19997;-76
2023/07/16 09:08:13;;;;;;;16.08;7.38;;;33.90;55.90;;;;;;6217487;23;20477;-76
2023/07/16 09:10:41;;;;;;;14.48;6.85;;;33.90;56.00;;;;;;6215397;23;20000;-77
2023/07/16 09:13:06;;;;;;;15.88;7.43;;;33.80;56.10;;;;;;6215360;23;20458;-76
2023/07/16 09:15:34;;;;;;;18.67;7.85;;;33.80;56.20;;;;;;6215642;23;20003;-77
2023/07/16 09:18:00;;;;;;;14.32;7.50;;;33.80;57.10;;;;;;6215561;23;20020;-76
2023/07/16 09:20:27;;;;;;;15.68;7.05;;;33.70;56.90;;;;;;6215124;23;20003;-77
2023/07/16 09:22:56;;;;;;;14.52;7.10;;;33.70;56.30;;;;;;6215495;23;20009;-76
2023/07/16 09:25:32;;;;;;;19.13;7.50;;;33.70;56.50;;;;;;6215183;23;20011;-77
2023/07/16 09:28:02;;;;;;;22.30;8.05;;;33.70;56.40;;;;;;6215292;23;20071;-76
2023/07/16 09:30:33;;;;;;;18.92;7.50;;;33.70;56.50;;;;;;6215121;23;19997;-77
2023/07/16 09:33:13;;;;;;;17.10;7.43;;;33.70;56.60;;;;;;6215107;23;20470;-76
2023/07/16 09:35:39;;;;;;;18.92;7.70;;;33.70;55.50;;;;;;6215179;23;19997;-77
2023/07/16 09:38:05;;;;;;;23.35;7.40;;;33.70;56.60;;;;;;6215352;23;20030;-77
2023/07/16 09:40:31;;;;;;;14.52;6.80;;;33.80;56.70;;;;;;6215123;23;20000;-76
2023/07/16 09:42:57;;;;;;;18.95;7.57;;;33.90;56.70;;;;;;6216427;23;20087;-77
2023/07/16 09:45:23;;;;;;;18.20;7.18;;;34.00;56.40;;;;;;6220859;23;20000;-74
2023/07/16 09:47:49;;;;;;;15.25;6.93;;;34.00;56.30;;;;;;6217400;23;20512;-78
2023/07/16 09:50:15;;;;;;;17.02;7.15;;;34.00;56.20;;;;;;6188486;23;20016;-77
2023/07/16 09:52:42;;;;;;;11.77;6.60;;;34.10;56.00;;;;;;6215517;23;20009;-76
2023/07/16 09:55:09;;;;;;;16.98;6.72;;;34.10;55.90;;;;;;6217177;23;20032;-76
2023/07/16 09:57:38;;;;;;;23.35;7.78;;;34.20;55.80;;;;;;6215388;23;20341;-75
2023/07/16 10:00:14;;;;;;;17.58;8.13;;;34.20;55.80;;;;;;6214964;23;19996;-76
2023/07/16 10:02:41;;;;;;;12.77;6.68;;;34.20;54.50;;;;;;6215298;23;20012;-77
2023/07/16 10:05:39;;;;;;;16.42;6.60;;;34.30;55.20;;;;;;6215058;23;20036;-76
2023/07/16 10:08:15;;;;;;;12.40;5.88;;;34.40;55.10;;;;;;6148946;23;20796;-77
2023/07/16 10:10:51;;;;;;;16.17;6.72;;;34.50;54.80;;;;;;6215267;23;20410;-78
2023/07/16 10:13:17;;;;;;;12.75;5.60;;;34.40;54.30;;;;;;6215401;23;20016;-77
2023/07/16 10:16:01;;;;;;;9.60;5.00;;;34.40;53.80;;;;;;6214648;23;20342;-75
2023/07/16 10:18:28;;;;;;;10.93;4.50;;;34.50;52.70;;;;;;6215548;23;20021;-76
2023/07/16 10:20:53;;;;;;;13.35;4.70;;;34.60;52.20;;;;;;6214578;23;20316;-76
2023/07/16 10:23:19;;;;;;;15.07;4.60;;;34.70;51.60;;;;;;6214739;23;20000;-78
2023/07/16 10:26:05;;;;;;;13.85;4.80;;;34.80;51.20;;;;;;6214606;23;20074;-76
2023/07/16 10:28:35;;;;;;;12.27;5.40;;;34.90;51.20;;;;;;6214774;23;20338;-77
2023/07/16 10:31:01;;;;;;;13.00;4.85;;;35.00;51.20;;;;;;6187857;23;20055;-76
2023/07/16 10:33:27;;;;;;;10.93;4.63;;;35.00;51.00;;;;;;6214860;23;20008;-78
2023/07/16 10:35:53;;;;;;;13.15;4.68;;;35.00;50.70;;;;;;6214631;23;20024;-77
2023/07/16 10:38:19;;;;;;;19.25;5.25;;;35.10;50.40;;;;;;6215195;23;20346;-75
2023/07/16 10:40:45;;;;;;;15.32;5.30;;;35.20;50.00;;;;;;6215240;23;20017;-76
2023/07/16 10:43:14;;;;;;;12.57;5.35;;;35.30;49.60;;;;;;6215489;23;20017;-77
2023/07/16 10:45:41;;;;;;;10.48;4.72;;;35.30;48.70;;;;;;6215943;23;20004;-75
2023/07/16 10:48:07;;;;;;;12.50;4.85;;;35.40;48.50;;;;;;6215416;23;20004;-78
2023/07/16 10:50:34;;;;;;;11.15;5.13;;;35.40;48.70;;;;;;6215302;23;20023;-72
2023/07/16 10:53:00;;;;;;;12.68;5.05;;;35.50;48.50;;;;;;6215633;23;20009;-76
2023/07/16 10:55:31;;;;;;;13.95;5.53;;;35.60;48.20;;;;;;6215439;23;20340;-76
2023/07/16 10:57:57;;;;;;;14.57;6.05;;;35.70;48.60;;;;;;6215575;23;20067;-76
2023/07/16 11:00:23;;;;;;;14.50;5.43;;;35.80;48.80;;;;;;6215470;23;20331;-77
2023/07/16 11:02:52;;;;;;;15.23;5.22;;;35.80;48.50;;;;;;6215105;23;20367;-76
2023/07/16 11:05:19;;;;;;;13.45;5.95;;;35.80;47.90;;;;;;6215472;23;20012;-76
2023/07/16 11:07:49;;;;;;;13.35;5.40;;;35.90;48.20;;;;;;6215002;23;20080;-77
2023/07/16 11:10:18;;;;;;;19.83;5.90;;;35.90;48.90;;;;;;6214776;23;20427;-78
2023/07/16 11:12:44;;;;;;;13.77;7.15;;;36.00;51.20;;;;;;6214716;23;20004;-76
2023/07/16 11:15:11;;;;;;;17.70;7.57;;;36.00;53.60;;;;;;6215132;23;20024;-76
2023/07/16 11:17:39;;;;;;;16.20;6.70;;;35.90;55.10;;;;;;6215229;23;20071;-76
2023/07/16 11:20:07;;;;;;;22.30;8.00;;;35.90;55.90;;;;;;6214752;23;19997;-76
2023/07/16 11:22:38;;;;;;;15.88;7.35;;;35.90;56.30;;;;;;6215705;23;20001;-77
2023/07/16 11:25:04;;;;;;;18.73;7.85;;;35.80;57.30;;;;;;6215276;23;20032;-75
2023/07/16 11:27:32;;;;;;;22.13;7.32;;;35.70;57.60;;;;;;6215064;23;20005;-76
2023/07/16 11:30:00;;;;;;;18.15;7.60;;;35.70;57.90;;;;;;6215338;23;20419;-77
2023/07/16 11:32:35;;;;;;;21.35;8.10;;;35.70;58.00;;;;;;6214773;23;20021;-77
2023/07/16 11:35:04;;;;;;;22.73;7.25;;;35.60;57.20;;;;;;6215285;23;20024;-77
2023/07/16 11:37:31;;;;;;;19.58;7.63;;;35.60;58.30;;;;;;6214884;23;20035;-77
2023/07/16 11:40:03;;;;;;;16.58;7.55;;;35.50;58.50;;;;;;6214929;23;20300;-78
2023/07/16 11:42:37;;;;;;;16.33;8.00;;;35.50;58.70;;;;;;6214928;23;20016;-76
2023/07/16 11:45:04;;;;;;;19.55;8.05;;;35.60;58.60;;;;;;6219071;23;20086;-77
2023/07/16 11:47:30;;;;;;;19.02;7.40;;;35.60;58.30;;;;;;6214858;23;20468;-78
2023/07/16 11:49:57;;;;;;;19.40;7.68;;;35.70;58.60;;;;;;6214559;23;20001;-77
2023/07/16 11:52:27;;;;;;;23.73;8.27;;;35.70;58.60;;;;;;6214689;23;20012;-77
2023/07/16 11:54:54;;;;;;;18.30;7.97;;;35.70;57.20;;;;;;6214648;23;20004;-76
2023/07/16 11:57:19;;;;;;;18.83;6.95;;;35.70;58.50;;;;;;6214728;23;20073;-75
2023/07/16 11:59:45;;;;;;;16.27;7.50;;;35.70;58.30;;;;;;6215243;23;20075;-77
2023/07/16 12:02:12;;;;;;;21.80;7.45;;;35.70;58.40;;;;;;6214430;23;20091;-76
2023/07/16 12:04:37;;;;;;;17.75;7.35;;;35.60;58.30;;;;;;6165339;23;20013;-78
2023/07/16 12:07:03;;;;;;;15.73;6.85;;;35.60;58.30;;;;;;6214743;23;20419;-77
2023/07/16 12:09:29;;;;;;;19.75;7.00;;;35.70;58.50;;;;;;6215042;23;20004;-78
2023/07/16 12:11:56;;;;;;;17.13;6.50;;;35.80;58.40;;;;;;6214136;23;20005;-77
2023/07/16 12:14:21;;;;;;;18.05;7.10;;;35.80;58.10;;;;;;6214552;23;20427;-77
2023/07/16 12:16:47;;;;;;;17.63;6.88;;;35.80;57.70;;;;;;6214264;23;20047;-77
2023/07/16 12:19:13;;;;;;;18.08;7.53;;;35.80;57.70;;;;;;6214443;23;20004;-77
2023/07/16 12:21:38;;;;;;;22.75;6.88;;;35.80;57.60;;;;;;6214173;23;20007;-78
2023/07/16 12:24:05;;;;;;;18.45;6.95;;;35.80;58.00;;;;;;6214587;23;20001;-76
2023/07/16 12:26:31;;;;;;;15.52;6.80;;;35.90;57.40;;;;;;6214545;23;20001;-77
2023/07/16 12:28:56;;;;;;;14.73;6.28;;;36.00;57.40;;;;;;6216397;23;20055;-77
2023/07/16 12:31:22;;;;;;;13.88;6.25;;;36.00;57.10;;;;;;6216284;23;20017;-77
2023/07/16 12:33:48;;;;;;;13.20;6.82;;;36.10;57.10;;;;;;6216308;23;20019;-77